Time;durP1;ratioP1;P1;durP2;ratioP2;P2;SDS_P1;SDS_P2;PMS_P1;PMS_P2;Temp;Humidity;BMP_temperature;BMP_pressure;BME280_temperature;BME280_humidity;BME280_pressure;Samples;Min_cycle;Max_cycle;Signal;HPM_P1;HPM_P2
2023/10/27 00:00:43;;;;;;;25.23;11.57;;;;;;;;;;5053319;28;20052;-68
2023/10/27 00:03:09;;;;;;;24.80;11.30;;;;;;;;;;5053507;28;20060;-68
2023/10/27 00:05:37;;;;;;;27.80;12.00;;;;;;;;;;5049263;28;20484;-69
2023/10/27 00:08:07;;;;;;;27.60;11.38;;;;;;;;;;5043241;28;20064;-68
2023/10/27 00:10:37;;;;;;;24.70;11.00;;;;;;;;;;5011540;28;20052;-69
2023/10/27 00:13:03;;;;;;;30.30;11.57;;;;;;;;;;5046042;28;20061;-68
2023/10/27 00:15:30;;;;;;;30.58;11.57;;;;;;;;;;5035894;28;20055;-68
2023/10/27 00:17:58;;;;;;;28.92;11.70;;;;;;;;;;5040164;28;20052;-68
2023/10/27 00:20:25;;;;;;;30.52;12.23;;;;;;;;;;5033016;28;20215;-68
2023/10/27 00:22:53;;;;;;;27.98;11.93;;;;;;;;;;5039496;28;20056;-69
2023/10/27 00:25:19;;;;;;;29.48;12.05;;;;;;;;;;5032300;28;20138;-68
2023/10/27 00:27:46;;;;;;;28.08;11.60;;;;;;;;;;5020031;28;20148;-69
2023/10/27 00:30:13;;;;;;;29.27;11.95;;;;;;;;;;5015051;28;20073;-69
2023/10/27 00:32:40;;;;;;;28.77;11.90;;;;;;;;;;5034620;28;20061;-69
2023/10/27 00:35:07;;;;;;;28.98;12.10;;;;;;;;;;5018422;28;20067;-68
2023/10/27 00:37:34;;;;;;;31.20;12.02;;;;;;;;;;5021627;28;20054;-69
2023/10/27 00:40:05;;;;;;;27.52;12.02;;;;;;;;;;5037874;28;20551;-69
2023/10/27 00:42:32;;;;;;;29.20;12.38;;;;;;;;;;5015004;28;20068;-68
2023/10/27 00:44:58;;;;;;;27.95;12.63;;;;;;;;;;5015557;28;20073;-68
2023/10/27 00:47:25;;;;;;;26.33;11.35;;;;;;;;;;5035767;28;20127;-69
2023/10/27 00:49:55;;;;;;;30.52;11.95;;;;;;;;;;5020576;28;20057;-69
2023/10/27 00:52:25;;;;;;;27.23;11.40;;;;;;;;;;5029100;28;20053;-69
2023/10/27 00:54:54;;;;;;;25.05;12.02;;;;;;;;;;5036003;28;20060;-68
2023/10/27 00:57:23;;;;;;;29.45;11.77;;;;;;;;;;5036676;28;20056;-69
2023/10/27 00:59:51;;;;;;;26.98;10.93;;;;;;;;;;5038250;28;20233;-69
2023/10/27 01:02:18;;;;;;;23.42;10.30;;;;;;;;;;5033850;28;20138;-68
2023/10/27 01:04:46;;;;;;;31.88;12.38;;;;;;;;;;5037486;28;20077;-69
2023/10/27 01:07:13;;;;;;;34.45;14.27;;;;;;;;;;5031933;28;20057;-68
2023/10/27 01:09:39;;;;;;;44.28;17.58;;;;;;;;;;5039645;28;20064;-69
2023/10/27 01:12:07;;;;;;;25.13;10.93;;;;;;;;;;5070710;28;20049;-68
2023/10/27 01:14:35;;;;;;;26.25;11.55;;;;;;;;;;5032207;28;20051;-69
2023/10/27 01:17:02;;;;;;;25.38;10.32;;;;;;;;;;5036911;28;20056;-69
2023/10/27 01:19:28;;;;;;;23.08;10.57;;;;;;;;;;5043542;28;20045;-69
2023/10/27 01:21:55;;;;;;;24.10;11.18;;;;;;;;;;5040782;28;20153;-69
2023/10/27 01:24:23;;;;;;;25.25;11.15;;;;;;;;;;5032688;28;20060;-68
2023/10/27 01:26:50;;;;;;;26.13;10.98;;;;;;;;;;5038754;28;20067;-68
2023/10/27 01:29:17;;;;;;;23.77;10.70;;;;;;;;;;5037661;28;20048;-68
2023/10/27 01:31:43;;;;;;;24.08;10.77;;;;;;;;;;5040422;28;20053;-69
2023/10/27 01:34:11;;;;;;;26.70;11.60;;;;;;;;;;5034624;28;20163;-69
2023/10/27 01:36:37;;;;;;;25.27;10.35;;;;;;;;;;5030891;28;20106;-70
2023/10/27 01:39:04;;;;;;;27.60;10.82;;;;;;;;;;5038127;28;20128;-69
2023/10/27 01:41:32;;;;;;;23.55;9.73;;;;;;;;;;5038263;28;20076;-69
2023/10/27 01:44:05;;;;;;;23.38;10.45;;;;;;;;;;5038899;28;20102;-68
2023/10/27 01:46:32;;;;;;;29.27;9.90;;;;;;;;;;5031107;28;20052;-69
2023/10/27 01:48:58;;;;;;;22.52;10.02;;;;;;;;;;5056969;28;20064;-68
2023/10/27 01:51:25;;;;;;;23.38;9.38;;;;;;;;;;5059667;28;20056;-68
2023/10/27 01:53:52;;;;;;;23.85;9.27;;;;;;;;;;5047558;28;20052;-68
2023/10/27 01:56:18;;;;;;;26.05;10.43;;;;;;;;;;5025928;28;20048;-70
2023/10/27 01:58:47;;;;;;;19.50;9.82;;;;;;;;;;5038147;28;20084;-70
2023/10/27 02:01:14;;;;;;;22.33;9.93;;;;;;;;;;5036868;28;20118;-68
2023/10/27 02:03:41;;;;;;;23.88;10.05;;;;;;;;;;4997834;28;20045;-70
2023/10/27 02:06:08;;;;;;;26.63;9.73;;;;;;;;;;5040361;28;20417;-70
2023/10/27 02:08:35;;;;;;;21.73;9.18;;;;;;;;;;5049709;28;20110;-70
2023/10/27 02:11:03;;;;;;;20.65;9.68;;;;;;;;;;5039433;28;20148;-69
2023/10/27 02:13:29;;;;;;;23.95;9.52;;;;;;;;;;5033874;28;20042;-67
2023/10/27 02:15:58;;;;;;;24.85;9.13;;;;;;;;;;5012476;28;20057;-69
2023/10/27 02:18:24;;;;;;;22.80;9.15;;;;;;;;;;5009394;28;20049;-68
2023/10/27 02:20:51;;;;;;;19.63;8.27;;;;;;;;;;5018795;28;20041;-69
2023/10/27 02:23:18;;;;;;;18.83;8.82;;;;;;;;;;5034078;28;20065;-70
2023/10/27 02:25:45;;;;;;;21.25;8.60;;;;;;;;;;5045962;28;20057;-69
2023/10/27 02:28:12;;;;;;;21.35;8.23;;;;;;;;;;5010675;28;20132;-69
2023/10/27 02:30:39;;;;;;;20.13;8.18;;;;;;;;;;5017037;28;20064;-69
2023/10/27 02:33:07;;;;;;;19.65;8.35;;;;;;;;;;5019209;28;20123;-69
2023/10/27 02:35:34;;;;;;;18.60;7.88;;;;;;;;;;5012697;28;20084;-68
2023/10/27 02:38:04;;;;;;;17.95;7.85;;;;;;;;;;5019446;28;20073;-68
2023/10/27 02:40:30;;;;;;;20.17;8.57;;;;;;;;;;5011838;28;20068;-68
2023/10/27 02:42:57;;;;;;;18.00;7.80;;;;;;;;;;5017049;28;20054;-69
2023/10/27 02:45:24;;;;;;;20.92;7.88;;;;;;;;;;5012577;28;20053;-69
2023/10/27 02:47:51;;;;;;;18.30;7.90;;;;;;;;;;5016921;28;20053;-69
2023/10/27 02:50:19;;;;;;;14.95;7.20;;;;;;;;;;5010128;28;20107;-69
2023/10/27 02:52:46;;;;;;;19.58;7.85;;;;;;;;;;5018373;28;20053;-68
2023/10/27 02:55:12;;;;;;;16.17;7.47;;;;;;;;;;5014246;28;20060;-68
2023/10/27 02:57:39;;;;;;;21.05;8.15;;;;;;;;;;5018673;28;20459;-70
2023/10/27 03:00:08;;;;;;;20.98;8.07;;;;;;;;;;5014853;28;20076;-70
2023/10/27 03:02:34;;;;;;;;;;;;;;;;;;4994177;28;20192;-69
2023/10/27 03:05:01;;;;;;;21.50;7.63;;;;;;;;;;4992239;28;19934;-69
2023/10/27 03:07:29;;;;;;;18.55;7.97;;;;;;;;;;4997203;28;20073;-68
2023/10/27 03:09:56;;;;;;;16.00;7.00;;;;;;;;;;4996728;28;20046;-67
2023/10/27 03:12:22;;;;;;;20.52;8.13;;;;;;;;;;4998545;28;20049;-70
2023/10/27 03:14:49;;;;;;;16.35;6.55;;;;;;;;;;5023806;28;20088;-71
2023/10/27 03:17:16;;;;;;;19.38;7.35;;;;;;;;;;5037092;28;20515;-68
2023/10/27 03:19:43;;;;;;;17.45;7.05;;;;;;;;;;5036230;28;20052;-69
2023/10/27 03:22:10;;;;;;;18.67;7.57;;;;;;;;;;5033232;28;20057;-70
2023/10/27 03:24:38;;;;;;;13.38;6.30;;;;;;;;;;5037995;28;20111;-68
2023/10/27 03:27:05;;;;;;;17.08;7.55;;;;;;;;;;5016720;28;20149;-70
2023/10/27 03:29:32;;;;;;;16.60;7.15;;;;;;;;;;5016302;28;20057;-70
2023/10/27 03:32:00;;;;;;;20.00;8.00;;;;;;;;;;5016511;28;20057;-69
2023/10/27 03:34:26;;;;;;;20.38;6.97;;;;;;;;;;5005169;28;20061;-69
2023/10/27 03:36:53;;;;;;;18.10;6.97;;;;;;;;;;5016746;28;20049;-68
2023/10/27 03:39:20;;;;;;;15.70;6.97;;;;;;;;;;5019561;28;20062;-67
2023/10/27 03:41:48;;;;;;;16.98;6.85;;;;;;;;;;5030426;28;20220;-69
2023/10/27 03:44:14;;;;;;;16.80;7.65;;;;;;;;;;5011696;28;20172;-69
2023/10/27 03:46:41;;;;;;;14.45;7.07;;;;;;;;;;5036989;28;20049;-67
2023/10/27 03:49:08;;;;;;;16.98;6.43;;;;;;;;;;5039566;28;20140;-70
2023/10/27 03:51:34;;;;;;;17.45;6.57;;;;;;;;;;5045302;28;20210;-71
2023/10/27 03:54:01;;;;;;;14.80;6.55;;;;;;;;;;5023160;28;20053;-69
2023/10/27 03:56:29;;;;;;;19.92;6.63;;;;;;;;;;5012491;28;20132;-71
2023/10/27 03:58:57;;;;;;;15.70;6.45;;;;;;;;;;5018349;28;20404;-71
2023/10/27 04:01:27;;;;;;;14.77;6.45;;;;;;;;;;5019653;28;20049;-71
2023/10/27 04:03:54;;;;;;;14.80;6.50;;;;;;;;;;5017867;28;20060;-68
2023/10/27 04:06:21;;;;;;;15.15;6.72;;;;;;;;;;5034444;28;20234;-69
2023/10/27 04:08:48;;;;;;;16.70;6.35;;;;;;;;;;5039230;28;20057;-71
2023/10/27 04:11:14;;;;;;;17.70;6.32;;;;;;;;;;5039548;28;20053;-71
2023/10/27 04:13:41;;;;;;;13.90;5.97;;;;;;;;;;5033451;28;20052;-71
2023/10/27 04:16:09;;;;;;;16.17;6.70;;;;;;;;;;5016599;28;20072;-70
2023/10/27 04:18:36;;;;;;;18.48;6.53;;;;;;;;;;5021926;28;20049;-72
2023/10/27 04:21:04;;;;;;;16.02;6.20;;;;;;;;;;5019692;28;20440;-68
2023/10/27 04:23:31;;;;;;;16.10;5.85;;;;;;;;;;5024572;28;20053;-69
2023/10/27 04:25:56;;;;;;;16.75;6.00;;;;;;;;;;5016120;28;20674;-69
2023/10/27 04:28:23;;;;;;;15.90;5.57;;;;;;;;;;5011283;28;20088;-68
2023/10/27 04:30:52;;;;;;;13.43;5.55;;;;;;;;;;5020837;28;20057;-68
2023/10/27 04:33:20;;;;;;;;;;;;;;;;;;5021055;28;20165;-69
2023/10/27 04:35:46;;;;;;;15.23;5.18;;;;;;;;;;5017896;28;19924;-68
2023/10/27 04:38:13;;;;;;;11.30;5.00;;;;;;;;;;5013206;28;20057;-70
2023/10/27 04:40:40;;;;;;;16.30;5.85;;;;;;;;;;5018404;28;20072;-69
2023/10/27 04:43:06;;;;;;;14.88;5.70;;;;;;;;;;5020121;28;20045;-69
2023/10/27 04:45:33;;;;;;;13.38;5.20;;;;;;;;;;5031137;28;20148;-70
2023/10/27 04:48:00;;;;;;;10.90;5.13;;;;;;;;;;5040510;28;20248;-71
2023/10/27 04:50:28;;;;;;;13.60;5.30;;;;;;;;;;5031071;28;20052;-70
2023/10/27 04:52:55;;;;;;;12.90;4.68;;;;;;;;;;5030423;28;20057;-69
2023/10/27 04:55:21;;;;;;;12.10;4.97;;;;;;;;;;5026328;28;20148;-71
2023/10/27 04:57:53;;;;;;;12.40;4.85;;;;;;;;;;5038978;28;20072;-68
2023/10/27 05:00:20;;;;;;;13.18;5.18;;;;;;;;;;5028644;28;20049;-71
2023/10/27 05:02:47;;;;;;;12.25;5.15;;;;;;;;;;5035288;28;20055;-70
2023/10/27 05:05:16;;;;;;;10.60;4.57;;;;;;;;;;5038706;28;20064;-70
2023/10/27 05:07:44;;;;;;;9.82;4.45;;;;;;;;;;5052606;28;20060;-70
2023/10/27 05:10:11;;;;;;;9.90;4.22;;;;;;;;;;5032082;28;20126;-69
2023/10/27 05:12:38;;;;;;;11.00;4.47;;;;;;;;;;5036349;28;20053;-70
2023/10/27 05:15:06;;;;;;;12.05;4.50;;;;;;;;;;5032097;28;20072;-68
2023/10/27 05:17:34;;;;;;;8.13;3.83;;;;;;;;;;5038803;28;20049;-68
2023/10/27 05:20:02;;;;;;;8.93;3.72;;;;;;;;;;5038918;28;20053;-68
2023/10/27 05:22:30;;;;;;;10.10;4.68;;;;;;;;;;5032933;28;20048;-70
2023/10/27 05:24:58;;;;;;;8.13;3.55;;;;;;;;;;5030275;28;20079;-67
2023/10/27 05:27:25;;;;;;;10.27;4.03;;;;;;;;;;5034179;28;20049;-69
2023/10/27 05:29:51;;;;;;;10.13;3.75;;;;;;;;;;5031923;28;20052;-70
2023/10/27 05:32:18;;;;;;;10.15;4.18;;;;;;;;;;5029462;28;20126;-68
2023/10/27 05:34:45;;;;;;;8.90;3.70;;;;;;;;;;5028506;28;20150;-68
2023/10/27 05:37:12;;;;;;;8.63;3.47;;;;;;;;;;5034610;28;20111;-68
2023/10/27 05:39:38;;;;;;;9.27;3.78;;;;;;;;;;5031115;28;20132;-69
2023/10/27 05:42:08;;;;;;;9.05;3.92;;;;;;;;;;5029942;28;20045;-67
2023/10/27 05:44:34;;;;;;;8.48;3.50;;;;;;;;;;5023224;28;20065;-69
2023/10/27 05:47:01;;;;;;;7.45;3.25;;;;;;;;;;5021601;28;20060;-69
2023/10/27 05:49:29;;;;;;;8.65;3.35;;;;;;;;;;5051762;28;20162;-68
2023/10/27 05:51:56;;;;;;;9.27;3.58;;;;;;;;;;5028688;28;20152;-70
2023/10/27 05:54:23;;;;;;;7.43;3.28;;;;;;;;;;5019985;28;20098;-71
2023/10/27 05:56:51;;;;;;;7.38;2.92;;;;;;;;;;5031906;28;20048;-70
2023/10/27 05:59:19;;;;;;;6.38;2.90;;;;;;;;;;5030092;28;20141;-71
2023/10/27 06:01:48;;;;;;;9.77;3.85;;;;;;;;;;5030543;28;20140;-69
2023/10/27 06:04:15;;;;;;;9.32;4.03;;;;;;;;;;5022775;28;20060;-68
2023/10/27 06:06:42;;;;;;;7.90;3.53;;;;;;;;;;5037534;28;20053;-70
2023/10/27 06:09:08;;;;;;;9.38;3.67;;;;;;;;;;5036540;28;20048;-70
2023/10/27 06:11:35;;;;;;;8.75;3.40;;;;;;;;;;5039349;28;20144;-67
2023/10/27 06:14:03;;;;;;;9.27;3.33;;;;;;;;;;5029147;28;20069;-67
2023/10/27 06:16:31;;;;;;;7.85;3.72;;;;;;;;;;5015851;28;20061;-67
2023/10/27 06:18:58;;;;;;;6.88;3.25;;;;;;;;;;5019660;28;20072;-69
2023/10/27 06:21:25;;;;;;;8.32;3.72;;;;;;;;;;5023305;28;20063;-69
2023/10/27 06:23:52;;;;;;;7.85;3.35;;;;;;;;;;5014575;28;20049;-67
2023/10/27 06:26:18;;;;;;;8.10;3.45;;;;;;;;;;5011572;28;20057;-67
2023/10/27 06:28:46;;;;;;;6.43;2.80;;;;;;;;;;5019514;28;20053;-69
2023/10/27 06:31:13;;;;;;;5.78;2.65;;;;;;;;;;5020002;28;20126;-67
2023/10/27 06:33:41;;;;;;;8.27;3.20;;;;;;;;;;5019051;28;20038;-67
2023/10/27 06:36:08;;;;;;;6.93;2.85;;;;;;;;;;5019775;28;20049;-70
2023/10/27 06:38:35;;;;;;;6.68;2.67;;;;;;;;;;5019093;28;20060;-70
2023/10/27 06:41:01;;;;;;;8.93;2.83;;;;;;;;;;5019729;28;20065;-70
2023/10/27 06:43:28;;;;;;;8.77;3.03;;;;;;;;;;5019884;28;20065;-68
2023/10/27 06:45:55;;;;;;;5.53;2.47;;;;;;;;;;5017155;28;20056;-70
2023/10/27 06:48:22;;;;;;;6.47;2.92;;;;;;;;;;5014564;28;20460;-67
2023/10/27 06:50:50;;;;;;;6.05;2.67;;;;;;;;;;5020658;28;20057;-69
2023/10/27 06:53:17;;;;;;;5.82;2.42;;;;;;;;;;5020296;28;20519;-70
2023/10/27 06:55:44;;;;;;;5.15;2.55;;;;;;;;;;5017125;28;20076;-68
2023/10/27 06:58:11;;;;;;;5.82;2.50;;;;;;;;;;5015276;28;20119;-67
2023/10/27 07:00:39;;;;;;;;;;;;;;;;;;5018971;28;20060;-67
2023/10/27 07:03:06;;;;;;;5.15;2.30;;;;;;;;;;5036146;28;19932;-69
2023/10/27 07:05:33;;;;;;;5.28;2.28;;;;;;;;;;5029268;28;20060;-70
2023/10/27 07:08:01;;;;;;;9.95;3.50;;;;;;;;;;5042937;28;20045;-70
2023/10/27 07:10:28;;;;;;;5.05;2.47;;;;;;;;;;5031512;28;20053;-68
2023/10/27 07:12:54;;;;;;;7.25;2.88;;;;;;;;;;5037640;28;20117;-70
2023/10/27 07:15:21;;;;;;;5.47;2.47;;;;;;;;;;5034747;28;20064;-67
2023/10/27 07:17:48;;;;;;;4.28;2.25;;;;;;;;;;5038566;28;20049;-68
2023/10/27 07:20:15;;;;;;;4.68;2.13;;;;;;;;;;5034673;28;20048;-69
2023/10/27 07:22:41;;;;;;;5.28;2.35;;;;;;;;;;5038889;28;20223;-68
2023/10/27 07:25:10;;;;;;;6.30;2.55;;;;;;;;;;5037313;28;20072;-68
2023/10/27 07:27:37;;;;;;;5.55;2.38;;;;;;;;;;5043322;28;20072;-67
2023/10/27 07:30:07;;;;;;;4.53;1.98;;;;;;;;;;5042631;28;20049;-69
2023/10/27 07:32:34;;;;;;;5.72;2.78;;;;;;;;;;5045916;28;20056;-67
2023/10/27 07:35:01;;;;;;;4.25;1.95;;;;;;;;;;5029311;28;20053;-70
2023/10/27 07:37:27;;;;;;;7.75;3.40;;;;;;;;;;5024891;28;20080;-70
2023/10/27 07:39:55;;;;;;;12.63;4.70;;;;;;;;;;5025989;28;20064;-69
2023/10/27 07:42:25;;;;;;;9.43;2.92;;;;;;;;;;5018213;28;20302;-67
2023/10/27 07:44:51;;;;;;;5.40;2.22;;;;;;;;;;5024331;28;20077;-71
2023/10/27 07:47:18;;;;;;;5.32;2.40;;;;;;;;;;5024446;28;20049;-67
2023/10/27 07:49:45;;;;;;;5.50;2.42;;;;;;;;;;5040457;28;20064;-69
2023/10/27 07:52:12;;;;;;;4.93;2.20;;;;;;;;;;5017875;28;20057;-69
2023/10/27 07:54:39;;;;;;;6.88;2.55;;;;;;;;;;5016220;28;20052;-72
2023/10/27 07:57:06;;;;;;;7.25;2.33;;;;;;;;;;5038158;28;20041;-72
2023/10/27 07:59:34;;;;;;;4.93;2.20;;;;;;;;;;5021125;28;20061;-72
2023/10/27 08:02:01;;;;;;;5.03;2.20;;;;;;;;;;5021055;28;20075;-70
2023/10/27 08:04:32;;;;;;;5.75;2.17;;;;;;;;;;5011357;28;20921;-69
2023/10/27 08:06:59;;;;;;;;;;;;;;;;;;5023634;28;20053;-69
2023/10/27 08:09:26;;;;;;;5.75;2.30;;;;;;;;;;5022452;28;19925;-69
2023/10/27 08:11:53;;;;;;;6.88;2.78;;;;;;;;;;5026087;28;20068;-69
2023/10/27 08:14:20;;;;;;;5.18;2.47;;;;;;;;;;5026445;28;20037;-67
2023/10/27 08:16:48;;;;;;;5.65;2.65;;;;;;;;;;5024008;28;20049;-70
2023/10/27 08:19:15;;;;;;;5.68;2.63;;;;;;;;;;5022056;28;20161;-70
2023/10/27 08:21:43;;;;;;;9.55;3.63;;;;;;;;;;5023212;28;20053;-69
2023/10/27 08:24:10;;;;;;;;;;;;;;;;;;5020071;28;20048;-69
2023/10/27 08:26:37;;;;;;;11.30;5.38;;;;;;;;;;5039902;28;19932;-67
2023/10/27 08:29:03;;;;;;;7.50;3.60;;;;;;;;;;5041025;28;20060;-70
2023/10/27 08:31:30;;;;;;;7.15;2.92;;;;;;;;;;5042624;28;20053;-70
2023/10/27 08:34:04;;;;;;;8.32;3.42;;;;;;;;;;5034881;28;20160;-68
2023/10/27 08:36:30;;;;;;;7.60;3.35;;;;;;;;;;5038441;28;20061;-68
2023/10/27 08:38:57;;;;;;;6.38;2.97;;;;;;;;;;5046090;28;20583;-68
2023/10/27 08:41:26;;;;;;;7.78;3.08;;;;;;;;;;5044237;28;20061;-68
2023/10/27 08:43:54;;;;;;;;;;;;;;;;;;5015788;28;20054;-68
2023/10/27 08:46:22;;;;;;;7.63;3.10;;;;;;;;;;5015741;28;20222;-68
2023/10/27 08:48:49;;;;;;;7.65;3.63;;;;;;;;;;5001432;28;20054;-71
2023/10/27 08:51:18;;;;;;;8.93;3.33;;;;;;;;;;5020930;28;20053;-71
2023/10/27 08:53:46;;;;;;;7.78;3.13;;;;;;;;;;5024983;28;20052;-68
2023/10/27 08:56:18;;;;;;;7.25;3.28;;;;;;;;;;5020762;28;20049;-70
2023/10/27 08:58:51;;;;;;;7.70;3.55;;;;;;;;;;5020725;28;20061;-68
2023/10/27 09:01:18;;;;;;;7.72;3.15;;;;;;;;;;5022677;28;20132;-69
2023/10/27 09:04:10;;;;;;;7.65;3.63;;;;;;;;;;5011289;28;20346;-70
2023/10/27 09:06:40;;;;;;;6.70;2.72;;;;;;;;;;5045367;28;20491;-69
2023/10/27 09:09:09;;;;;;;5.45;2.60;;;;;;;;;;5041756;28;20045;-69
2023/10/27 09:11:43;;;;;;;5.35;2.63;;;;;;;;;;5042015;28;20056;-68
2023/10/27 09:14:22;;;;;;;7.32;3.08;;;;;;;;;;4976122;28;20057;-69
2023/10/27 09:16:49;;;;;;;7.13;2.95;;;;;;;;;;4992265;28;20084;-70
2023/10/27 09:19:21;;;;;;;6.57;3.13;;;;;;;;;;5001706;28;20049;-70
2023/10/27 09:21:50;;;;;;;7.28;2.83;;;;;;;;;;5005939;28;20571;-70
2023/10/27 09:24:24;;;;;;;5.88;2.70;;;;;;;;;;4996802;28;20061;-68
2023/10/27 09:26:51;;;;;;;7.22;3.10;;;;;;;;;;5000172;28;20046;-72
2023/10/27 09:29:18;;;;;;;7.50;3.13;;;;;;;;;;5004385;28;20137;-71
2023/10/27 09:31:45;;;;;;;7.13;3.13;;;;;;;;;;5001831;28;20377;-71
2023/10/27 09:34:20;;;;;;;6.45;2.78;;;;;;;;;;4990539;28;20057;-69
2023/10/27 09:37:04;;;;;;;7.10;3.10;;;;;;;;;;5003235;28;20287;-71
2023/10/27 09:39:34;;;;;;;6.35;3.13;;;;;;;;;;5000216;28;20077;-70
2023/10/27 09:42:03;;;;;;;7.35;3.10;;;;;;;;;;5001533;28;20054;-71
2023/10/27 09:44:35;;;;;;;7.38;3.22;;;;;;;;;;4980382;28;20347;-70
2023/10/27 09:47:08;;;;;;;7.00;3.08;;;;;;;;;;4993022;28;20043;-71
2023/10/27 09:49:37;;;;;;;6.68;2.80;;;;;;;;;;4981195;28;20077;-70
2023/10/27 09:52:10;;;;;;;8.43;3.13;;;;;;;;;;4980014;28;20171;-71
2023/10/27 09:54:38;;;;;;;7.00;3.05;;;;;;;;;;4966440;28;20151;-70
2023/10/27 09:57:07;;;;;;;6.57;3.07;;;;;;;;;;4981277;28;20058;-69
2023/10/27 09:59:34;;;;;;;7.15;3.08;;;;;;;;;;5011012;28;20081;-70
2023/10/27 10:02:06;;;;;;;5.93;2.75;;;;;;;;;;5000502;28;20061;-66
2023/10/27 10:05:00;;;;;;;7.18;3.47;;;;;;;;;;4983652;28;20147;-69
2023/10/27 10:07:51;;;;;;;6.88;3.15;;;;;;;;;;5004210;28;20054;-67
2023/10/27 10:10:20;;;;;;;6.60;2.88;;;;;;;;;;4976107;28;20039;-70
2023/10/27 10:13:00;;;;;;;;;;;;;;;;;;5000669;28;20046;-69
2023/10/27 10:15:31;;;;;;;7.10;3.28;;;;;;;;;;5021544;28;19947;-67
2023/10/27 10:17:58;;;;;;;7.85;3.00;;;;;;;;;;5023974;28;20093;-67
2023/10/27 10:21:07;;;;;;;5.82;2.60;;;;;;;;;;5014951;28;20041;-69
2023/10/27 10:24:10;;;;;;;6.55;2.60;;;;;;;;;;5018839;28;20069;-70
2023/10/27 10:27:12;;;;;;;5.40;2.55;;;;;;;;;;5051107;28;20056;-69
2023/10/27 10:29:42;;;;;;;5.53;2.60;;;;;;;;;;5021563;28;20148;-68
2023/10/27 10:32:30;;;;;;;9.18;2.70;;;;;;;;;;5000407;28;20504;-70
2023/10/27 10:35:20;;;;;;;5.60;2.28;;;;;;;;;;5023432;28;20349;-70
2023/10/27 10:37:47;;;;;;;6.32;2.50;;;;;;;;;;5019256;28;20061;-71
2023/10/27 10:40:24;;;;;;;4.78;2.17;;;;;;;;;;5017197;28;20057;-71
2023/10/27 10:43:27;;;;;;;5.90;2.38;;;;;;;;;;5020148;28;20079;-71
2023/10/27 10:45:54;;;;;;;6.10;2.67;;;;;;;;;;5025553;28;20057;-69
2023/10/27 10:48:24;;;;;;;4.97;2.40;;;;;;;;;;5049064;28;20253;-70
2023/10/27 10:50:53;;;;;;;5.13;2.38;;;;;;;;;;5059071;28;20052;-68
2023/10/27 10:53:22;;;;;;;;;;;;;;;;;;5042742;28;20159;-67
2023/10/27 10:55:50;;;;;;;5.18;2.35;;;;;;;;;;5033732;28;19951;-68
2023/10/27 10:58:30;;;;;;;6.38;2.58;;;;;;;;;;5035246;28;20049;-70
2023/10/27 11:01:03;;;;;;;6.82;2.72;;;;;;;;;;5038422;28;20048;-68
2023/10/27 11:03:33;;;;;;;4.95;2.55;;;;;;;;;;5018535;28;20069;-70
2023/10/27 11:06:05;;;;;;;7.30;2.85;;;;;;;;;;5011799;28;20090;-67
2023/10/27 11:08:34;;;;;;;6.30;3.03;;;;;;;;;;5007563;28;20055;-68
2023/10/27 11:11:06;;;;;;;9.95;2.38;;;;;;;;;;5020920;28;20049;-70
2023/10/27 11:13:41;;;;;;;5.53;2.38;;;;;;;;;;5023417;28;20100;-69
2023/10/27 11:16:14;;;;;;;6.35;2.47;;;;;;;;;;5029531;28;20099;-69
2023/10/27 11:18:41;;;;;;;4.75;2.05;;;;;;;;;;5039280;28;20056;-70
2023/10/27 11:21:14;;;;;;;5.03;2.28;;;;;;;;;;5040790;28;20053;-70
2023/10/27 11:23:42;;;;;;;6.13;2.30;;;;;;;;;;5040869;28;20057;-68
2023/10/27 11:26:08;;;;;;;6.25;2.45;;;;;;;;;;5028219;28;20052;-70
2023/10/27 11:28:41;;;;;;;4.15;2.10;;;;;;;;;;5038881;28;20122;-70
2023/10/27 11:31:11;;;;;;;5.18;2.17;;;;;;;;;;5041113;28;20053;-70
2023/10/27 11:33:57;;;;;;;5.32;2.22;;;;;;;;;;5039785;28;20127;-69
2023/10/27 11:36:24;;;;;;;3.88;1.83;;;;;;;;;;5031562;28;20122;-70
2023/10/27 11:38:51;;;;;;;4.20;2.17;;;;;;;;;;5037840;28;20056;-69
2023/10/27 11:41:19;;;;;;;4.15;2.10;;;;;;;;;;5039070;28;20057;-70
2023/10/27 11:43:47;;;;;;;5.20;2.30;;;;;;;;;;5045947;28;20053;-69
2023/10/27 11:46:16;;;;;;;4.82;2.25;;;;;;;;;;5023350;28;20048;-70
2023/10/27 11:48:43;;;;;;;4.20;1.98;;;;;;;;;;5043846;28;20041;-68
2023/10/27 11:51:11;;;;;;;5.78;2.38;;;;;;;;;;5038419;28;20055;-71
2023/10/27 11:53:41;;;;;;;9.07;3.90;;;;;;;;;;5036115;28;20053;-68
2023/10/27 11:56:08;;;;;;;13.55;6.03;;;;;;;;;;5029688;28;20055;-71
2023/10/27 11:58:35;;;;;;;9.80;4.63;;;;;;;;;;5046510;28;20107;-72
2023/10/27 12:01:04;;;;;;;7.63;3.10;;;;;;;;;;5020223;28;20054;-71
2023/10/27 12:03:31;;;;;;;5.40;2.40;;;;;;;;;;5019910;28;20049;-71
2023/10/27 12:05:58;;;;;;;5.57;2.33;;;;;;;;;;5023148;28;20052;-70
2023/10/27 12:08:25;;;;;;;5.43;2.90;;;;;;;;;;5012274;28;20242;-69
2023/10/27 12:10:53;;;;;;;6.95;2.83;;;;;;;;;;5020431;28;20060;-71
2023/10/27 12:13:23;;;;;;;9.57;2.92;;;;;;;;;;5020556;28;20081;-70
2023/10/27 12:15:50;;;;;;;9.00;3.55;;;;;;;;;;5026526;28;20052;-67
2023/10/27 12:18:20;;;;;;;6.63;2.92;;;;;;;;;;5039523;28;20053;-70
2023/10/27 12:20:47;;;;;;;5.82;2.53;;;;;;;;;;5043475;28;20076;-68
2023/10/27 12:23:14;;;;;;;7.68;3.10;;;;;;;;;;5041761;28;20069;-68
2023/10/27 12:25:42;;;;;;;6.20;2.63;;;;;;;;;;5030384;28;20105;-68
2023/10/27 12:28:12;;;;;;;6.25;2.78;;;;;;;;;;5039935;28;20053;-69
2023/10/27 12:30:39;;;;;;;8.60;2.90;;;;;;;;;;5040018;28;20500;-67
2023/10/27 12:33:09;;;;;;;5.85;2.55;;;;;;;;;;5044883;28;20059;-67
2023/10/27 12:35:38;;;;;;;5.72;2.65;;;;;;;;;;5014838;28;20131;-67
2023/10/27 12:38:05;;;;;;;12.10;4.00;;;;;;;;;;5018859;28;20053;-67
2023/10/27 12:40:34;;;;;;;7.33;3.63;;;;;;;;;;5017732;28;20203;-67
2023/10/27 12:43:04;;;;;;;11.43;4.13;;;;;;;;;;5023971;28;20069;-69
2023/10/27 12:45:32;;;;;;;9.57;3.72;;;;;;;;;;5012847;28;20067;-68
2023/10/27 12:48:01;;;;;;;7.00;2.83;;;;;;;;;;5054050;28;20104;-68
2023/10/27 12:50:28;;;;;;;6.20;2.45;;;;;;;;;;5019582;28;21044;-68
2023/10/27 12:52:56;;;;;;;8.80;2.45;;;;;;;;;;5022348;28;20057;-67
2023/10/27 12:55:26;;;;;;;7.13;2.53;;;;;;;;;;5038025;28;20060;-71
2023/10/27 12:57:57;;;;;;;10.38;3.03;;;;;;;;;;5035076;28;20168;-70
2023/10/27 13:00:27;;;;;;;6.15;2.97;;;;;;;;;;5020996;28;20042;-71
2023/10/27 13:02:55;;;;;;;7.75;3.17;;;;;;;;;;5055003;28;20057;-72
2023/10/27 13:05:23;;;;;;;7.68;2.85;;;;;;;;;;5018147;28;20059;-71
2023/10/27 13:07:49;;;;;;;6.10;2.80;;;;;;;;;;5027912;28;20053;-70
2023/10/27 13:10:18;;;;;;;6.90;3.30;;;;;;;;;;5016059;28;20064;-70
2023/10/27 13:12:47;;;;;;;21.00;9.13;;;;;;;;;;5020867;28;20068;-68
2023/10/27 13:15:14;;;;;;;17.52;9.10;;;;;;;;;;5009009;28;20171;-70
2023/10/27 13:17:43;;;;;;;7.95;3.00;;;;;;;;;;5040377;28;20176;-68
2023/10/27 13:20:13;;;;;;;5.53;2.53;;;;;;;;;;5035091;28;20044;-69
2023/10/27 13:22:40;;;;;;;5.15;2.45;;;;;;;;;;5039889;28;20150;-67
2023/10/27 13:25:08;;;;;;;5.05;2.35;;;;;;;;;;5028242;28;20056;-70
2023/10/27 13:27:37;;;;;;;5.43;2.38;;;;;;;;;;5039816;28;20056;-70
2023/10/27 13:30:06;;;;;;;4.93;2.05;;;;;;;;;;5037637;28;20053;-68
2023/10/27 13:32:33;;;;;;;3.00;1.60;;;;;;;;;;5036764;28;20061;-66
2023/10/27 13:35:00;;;;;;;4.30;2.00;;;;;;;;;;5038915;28;20053;-68
2023/10/27 13:37:28;;;;;;;3.00;1.70;;;;;;;;;;5061159;28;20049;-68
2023/10/27 13:39:56;;;;;;;2.95;1.50;;;;;;;;;;5058898;28;20163;-68
2023/10/27 13:42:23;;;;;;;3.67;1.55;;;;;;;;;;5045505;28;20095;-69
2023/10/27 13:44:51;;;;;;;2.72;1.40;;;;;;;;;;5033264;28;20068;-71
2023/10/27 13:47:18;;;;;;;3.38;1.33;;;;;;;;;;5054263;28;20060;-70
2023/10/27 13:49:45;;;;;;;6.30;1.45;;;;;;;;;;5041095;28;20056;-69
2023/10/27 13:52:12;;;;;;;2.78;1.50;;;;;;;;;;5034949;28;20049;-67
2023/10/27 13:54:39;;;;;;;4.30;1.33;;;;;;;;;;5035554;28;20068;-67
2023/10/27 13:57:08;;;;;;;3.67;1.30;;;;;;;;;;5038649;28;20106;-68
2023/10/27 13:59:35;;;;;;;2.55;1.35;;;;;;;;;;5025020;28;20057;-69
2023/10/27 14:02:04;;;;;;;5.75;1.48;;;;;;;;;;5040189;28;20055;-67
2023/10/27 14:04:31;;;;;;;4.93;1.55;;;;;;;;;;5006885;28;20085;-67
2023/10/27 14:06:58;;;;;;;2.88;1.60;;;;;;;;;;5033934;28;20045;-68
2023/10/27 14:09:25;;;;;;;4.90;1.52;;;;;;;;;;5036779;28;20058;-70
2023/10/27 14:11:52;;;;;;;4.57;2.20;;;;;;;;;;5024147;28;20061;-69
2023/10/27 14:14:20;;;;;;;4.65;2.40;;;;;;;;;;5032225;28;20058;-68
2023/10/27 14:16:47;;;;;;;5.13;2.30;;;;;;;;;;5038636;28;20063;-71
2023/10/27 14:19:16;;;;;;;5.50;2.28;;;;;;;;;;5043069;28;20037;-68
2023/10/27 14:21:43;;;;;;;;;;;;;;;;;;5041019;28;20053;-70
2023/10/27 14:24:11;;;;;;;5.82;2.50;;;;;;;;;;5049818;28;19944;-69
2023/10/27 14:26:38;;;;;;;6.90;2.78;;;;;;;;;;5036300;28;20067;-69
2023/10/27 14:29:06;;;;;;;8.10;3.03;;;;;;;;;;5039623;28;20152;-68
2023/10/27 14:31:34;;;;;;;5.30;2.25;;;;;;;;;;5038876;28;20326;-70
2023/10/27 14:34:02;;;;;;;4.10;2.30;;;;;;;;;;5053867;28;20048;-69
2023/10/27 14:36:30;;;;;;;4.03;2.03;;;;;;;;;;5034340;28;20217;-69
2023/10/27 14:38:57;;;;;;;;;;;;;;;;;;5042114;28;20053;-69
2023/10/27 14:41:25;;;;;;;5.78;2.22;;;;;;;;;;5040429;28;19928;-68
2023/10/27 14:43:52;;;;;;;4.60;2.45;;;;;;;;;;5042809;28;20044;-67
2023/10/27 14:46:20;;;;;;;5.60;2.25;;;;;;;;;;4986841;28;20072;-67